Time;durP1;ratioP1;P1;durP2;ratioP2;P2;SDS_P1;SDS_P2;PMS_P1;PMS_P2;Temp;Humidity;BMP_temperature;BMP_pressure;BME280_temperature;BME280_humidity;BME280_pressure;Samples;Min_cycle;Max_cycle;Signal;HPM_P1;HPM_P2
2022/12/14 00:01:07;;;;;;;26.38;12.18;;;;;;;;;;4998776;28;20116;-80
2022/12/14 00:03:33;;;;;;;27.10;13.10;;;;;;;;;;5015929;28;20025;-80
2022/12/14 00:05:59;;;;;;;22.38;11.00;;;;;;;;;;4998084;28;20092;-80
2022/12/14 00:08:24;;;;;;;19.15;9.90;;;;;;;;;;5015335;28;20034;-79
2022/12/14 00:10:50;;;;;;;19.05;9.48;;;;;;;;;;4981788;28;20479;-80
2022/12/14 00:13:15;;;;;;;21.05;9.57;;;;;;;;;;5015485;28;20041;-80
2022/12/14 00:15:41;;;;;;;19.02;9.02;;;;;;;;;;5015658;28;20037;-80
2022/12/14 00:18:09;;;;;;;17.20;8.30;;;;;;;;;;5015517;28;20038;-80
2022/12/14 00:20:35;;;;;;;19.45;9.45;;;;;;;;;;4998057;28;20298;-80
2022/12/14 00:23:00;;;;;;;19.48;9.70;;;;;;;;;;5015775;28;20510;-80
2022/12/14 00:25:26;;;;;;;19.63;9.15;;;;;;;;;;5015379;28;20056;-80
2022/12/14 00:27:51;;;;;;;19.60;9.10;;;;;;;;;;4997232;28;20042;-80
2022/12/14 00:30:19;;;;;;;19.42;10.10;;;;;;;;;;5015716;28;20041;-80
2022/12/14 00:32:46;;;;;;;20.02;9.35;;;;;;;;;;5015800;28;20128;-80
2022/12/14 00:35:16;;;;;;;19.25;8.80;;;;;;;;;;4997984;28;20034;-80
2022/12/14 00:37:42;;;;;;;19.60;8.80;;;;;;;;;;4997957;28;20061;-80
2022/12/14 00:40:08;;;;;;;17.50;8.30;;;;;;;;;;5015495;28;20021;-80
2022/12/14 00:42:34;;;;;;;14.20;7.53;;;;;;;;;;5015654;28;20514;-80
2022/12/14 00:45:01;;;;;;;18.63;8.40;;;;;;;;;;5014802;28;20045;-80
2022/12/14 00:47:27;;;;;;;14.05;7.90;;;;;;;;;;5015196;28;20030;-80
2022/12/14 00:49:52;;;;;;;14.05;7.82;;;;;;;;;;5015228;28;20052;-80
2022/12/14 00:52:18;;;;;;;16.55;8.15;;;;;;;;;;5014859;28;20041;-80
2022/12/14 00:54:43;;;;;;;18.33;7.90;;;;;;;;;;5015206;28;20375;-80
2022/12/14 00:57:09;;;;;;;13.60;7.45;;;;;;;;;;4997552;28;20058;-80
2022/12/14 00:59:35;;;;;;;14.93;7.43;;;;;;;;;;5015019;28;20402;-80
2022/12/14 01:02:00;;;;;;;14.57;7.38;;;;;;;;;;5014875;28;20046;-80
2022/12/14 01:04:26;;;;;;;14.90;7.20;;;;;;;;;;5014342;28;20045;-80
2022/12/14 01:06:52;;;;;;;14.57;7.35;;;;;;;;;;5015368;28;20026;-80
2022/12/14 01:09:20;;;;;;;16.70;7.05;;;;;;;;;;5016963;28;20042;-80
2022/12/14 01:11:46;;;;;;;17.15;8.10;;;;;;;;;;5019343;28;20041;-80
2022/12/14 01:14:13;;;;;;;19.73;8.02;;;;;;;;;;5018496;28;20442;-80
2022/12/14 01:16:39;;;;;;;17.25;8.05;;;;;;;;;;5018838;28;20038;-80
2022/12/14 01:19:04;;;;;;;24.05;8.82;;;;;;;;;;5001070;28;20036;-80
2022/12/14 01:21:30;;;;;;;15.68;7.75;;;;;;;;;;5000677;28;20398;-79
2022/12/14 01:23:58;;;;;;;18.02;8.48;;;;;;;;;;5017749;28;20042;-79
2022/12/14 01:26:25;;;;;;;23.80;9.25;;;;;;;;;;5019146;28;20117;-80
2022/12/14 01:28:52;;;;;;;17.48;8.68;;;;;;;;;;5018857;28;20111;-79
2022/12/14 01:31:21;;;;;;;19.45;8.90;;;;;;;;;;5017517;28;20414;-80
2022/12/14 01:33:47;;;;;;;15.25;8.07;;;;;;;;;;5017922;28;20034;-80
2022/12/14 01:36:15;;;;;;;15.65;6.95;;;;;;;;;;5017634;28;20077;-80
2022/12/14 01:38:41;;;;;;;16.15;7.65;;;;;;;;;;5018870;28;20098;-80
2022/12/14 01:41:11;;;;;;;14.50;7.55;;;;;;;;;;5018047;28;20061;-80
2022/12/14 01:43:45;;;;;;;12.50;6.82;;;;;;;;;;5018498;28;20459;-80
2022/12/14 01:46:12;;;;;;;14.18;6.97;;;;;;;;;;5018078;28;20112;-80
2022/12/14 01:48:38;;;;;;;12.45;6.05;;;;;;;;;;5018341;28;20063;-80
2022/12/14 01:51:03;;;;;;;14.85;6.50;;;;;;;;;;5017338;28;20044;-80
2022/12/14 01:53:29;;;;;;;14.50;6.90;;;;;;;;;;5017513;28;20187;-80
2022/12/14 01:55:55;;;;;;;12.88;6.45;;;;;;;;;;5018121;28;20093;-80
2022/12/14 01:58:23;;;;;;;12.52;6.15;;;;;;;;;;5016895;28;20527;-80
2022/12/14 02:00:53;;;;;;;12.70;6.35;;;;;;;;;;5016616;28;20045;-80
2022/12/14 02:03:25;;;;;;;12.13;6.20;;;;;;;;;;5018374;28;20048;-80
2022/12/14 02:05:54;;;;;;;11.45;5.82;;;;;;;;;;5018684;28;20403;-80
2022/12/14 02:08:22;;;;;;;11.82;6.32;;;;;;;;;;5018456;28;20069;-80
2022/12/14 02:10:49;;;;;;;12.75;6.43;;;;;;;;;;5019694;28;20073;-80
2022/12/14 02:13:21;;;;;;;11.60;6.20;;;;;;;;;;5019240;28;20042;-80
2022/12/14 02:15:47;;;;;;;12.65;6.38;;;;;;;;;;5017398;28;20037;-80
2022/12/14 02:18:19;;;;;;;11.32;6.20;;;;;;;;;;5019395;28;20092;-80
2022/12/14 02:21:00;;;;;;;12.73;6.70;;;;;;;;;;5018313;28;20045;-80
2022/12/14 02:23:44;;;;;;;10.70;5.82;;;;;;;;;;5001847;28;20036;-80
2022/12/14 02:26:28;;;;;;;11.70;5.90;;;;;;;;;;5017659;28;20557;-80
2022/12/14 02:29:12;;;;;;;11.75;6.05;;;;;;;;;;5018760;28;20050;-80
2022/12/14 02:32:08;;;;;;;11.52;6.13;;;;;;;;;;5019172;28;20116;-80
2022/12/14 02:35:04;;;;;;;13.27;6.30;;;;;;;;;;5017899;28;20166;-80
2022/12/14 02:37:41;;;;;;;12.77;6.72;;;;;;;;;;5018874;28;20038;-80
2022/12/14 02:40:18;;;;;;;12.18;5.88;;;;;;;;;;5017427;28;20439;-80
2022/12/14 02:42:57;;;;;;;12.48;5.95;;;;;;;;;;5017950;28;20041;-80
2022/12/14 02:45:36;;;;;;;15.65;6.30;;;;;;;;;;5017467;28;20037;-80
2022/12/14 02:48:21;;;;;;;13.75;6.50;;;;;;;;;;5018276;28;20061;-80
2022/12/14 02:51:00;;;;;;;11.88;6.25;;;;;;;;;;5017959;28;20033;-80
2022/12/14 02:53:44;;;;;;;10.20;5.95;;;;;;;;;;5017284;28;20068;-80
2022/12/14 02:56:16;;;;;;;12.05;6.38;;;;;;;;;;5016886;28;20034;-80
2022/12/14 02:58:47;;;;;;;11.48;5.93;;;;;;;;;;5018252;28;20037;-80
2022/12/14 03:01:17;;;;;;;13.70;6.68;;;;;;;;;;5017190;28;20037;-80
2022/12/14 03:03:43;;;;;;;13.65;7.00;;;;;;;;;;5017424;28;20037;-80
2022/12/14 03:06:24;;;;;;;14.30;6.07;;;;;;;;;;5018187;28;20041;-80
2022/12/14 03:08:52;;;;;;;12.25;6.07;;;;;;;;;;5017235;28;20140;-80
2022/12/14 03:11:25;;;;;;;10.80;6.00;;;;;;;;;;5018028;28;20125;-80
2022/12/14 03:14:26;;;;;;;12.13;6.85;;;;;;;;;;5017960;28;20083;-80
2022/12/14 03:16:55;;;;;;;13.75;7.68;;;;;;;;;;5003700;28;20046;-80
2022/12/14 03:19:39;;;;;;;13.70;6.95;;;;;;;;;;5017768;28;20037;-80
2022/12/14 03:22:16;;;;;;;13.93;7.35;;;;;;;;;;5017999;28;20048;-80
2022/12/14 03:24:46;;;;;;;14.15;7.47;;;;;;;;;;5016674;28;20041;-80
2022/12/14 03:27:21;;;;;;;15.13;7.82;;;;;;;;;;5017756;28;20034;-80
2022/12/14 03:29:58;;;;;;;14.60;7.68;;;;;;;;;;5016933;28;20418;-80
2022/12/14 03:32:26;;;;;;;14.75;7.80;;;;;;;;;;5017675;28;20074;-80
2022/12/14 03:35:09;;;;;;;15.40;8.02;;;;;;;;;;5016801;28;20038;-80
2022/12/14 03:37:50;;;;;;;13.80;8.07;;;;;;;;;;5017183;28;20503;-80
2022/12/14 03:40:17;;;;;;;14.27;7.47;;;;;;;;;;5017082;28;20050;-80
2022/12/14 03:43:04;;;;;;;15.05;7.68;;;;;;;;;;5017325;28;20117;-80
2022/12/14 03:45:44;;;;;;;17.58;8.25;;;;;;;;;;5017713;28;20118;-80
2022/12/14 03:48:34;;;;;;;17.10;8.05;;;;;;;;;;5017792;28;20045;-80
2022/12/14 03:51:05;;;;;;;12.90;7.13;;;;;;;;;;5017196;28;20042;-80
2022/12/14 03:53:37;;;;;;;18.02;8.00;;;;;;;;;;5017508;28;20034;-80
2022/12/14 03:56:26;;;;;;;16.23;7.30;;;;;;;;;;5016855;28;20076;-80
2022/12/14 03:58:52;;;;;;;16.38;8.63;;;;;;;;;;5015816;28;20038;-80
2022/12/14 04:01:39;;;;;;;24.73;8.93;;;;;;;;;;4999337;28;20022;-80
2022/12/14 04:04:07;;;;;;;21.30;10.00;;;;;;;;;;5015579;28;20391;-80
2022/12/14 04:06:54;;;;;;;20.85;10.57;;;;;;;;;;5017494;28;20029;-80
2022/12/14 04:09:46;;;;;;;16.98;8.98;;;;;;;;;;5016667;28;20078;-80
2022/12/14 04:21:27;;;;;;;14.20;7.67;;;;;;;;;;5016169;28;20046;-80
2022/12/14 04:26:57;;;;;;;15.18;8.32;;;;;;;;;;5017046;28;20089;-80
2022/12/14 04:32:36;;;;;;;14.75;8.45;;;;;;;;;;5016682;28;20038;-80
2022/12/14 04:35:08;;;;;;;14.95;8.23;;;;;;;;;;5015353;28;20140;-80
2022/12/14 04:37:37;;;;;;;15.23;8.15;;;;;;;;;;4999218;28;20033;-82
2022/12/14 04:40:13;;;;;;;20.25;9.25;;;;;;;;;;5015653;28;20038;-81
2022/12/14 04:42:45;;;;;;;18.45;10.27;;;;;;;;;;5016002;28;20053;-81
2022/12/14 04:45:16;;;;;;;17.13;8.93;;;;;;;;;;5014609;28;20048;-81
2022/12/14 04:47:49;;;;;;;20.95;9.82;;;;;;;;;;5015266;28;20490;-81
2022/12/14 04:50:27;;;;;;;17.42;9.35;;;;;;;;;;5013642;28;20045;-80
2022/12/14 04:53:06;;;;;;;20.02;9.80;;;;;;;;;;5016876;28;20461;-80
2022/12/14 04:55:39;;;;;;;18.00;9.10;;;;;;;;;;5016756;28;20657;-80
2022/12/14 04:58:10;;;;;;;20.05;9.95;;;;;;;;;;4998908;28;20049;-80
2022/12/14 05:00:51;;;;;;;19.48;8.80;;;;;;;;;;5016540;28;20034;-80
2022/12/14 05:03:21;;;;;;;16.90;9.10;;;;;;;;;;5014602;28;20026;-80
2022/12/14 05:06:01;;;;;;;19.77;8.82;;;;;;;;;;5015763;28;20073;-81
2022/12/14 05:09:10;;;;;;;15.40;8.02;;;;;;;;;;5016261;28;20042;-81
2022/12/14 05:11:44;;;;;;;16.42;8.15;;;;;;;;;;5014712;28;20044;-80
2022/12/14 05:14:20;;;;;;;17.38;8.23;;;;;;;;;;5014583;28;20057;-80
2022/12/14 05:16:48;;;;;;;15.45;8.52;;;;;;;;;;5015651;28;20044;-80
2022/12/14 05:19:14;;;;;;;16.27;9.25;;;;;;;;;;5015822;28;20034;-80
2022/12/14 05:21:48;;;;;;;16.45;8.20;;;;;;;;;;5015755;28;20042;-80
2022/12/14 05:24:15;;;;;;;18.92;8.50;;;;;;;;;;4997970;28;20038;-80
2022/12/14 05:26:42;;;;;;;16.10;8.48;;;;;;;;;;5015627;28;20533;-80
2022/12/14 05:29:08;;;;;;;16.88;8.23;;;;;;;;;;5015164;28;20088;-80
2022/12/14 05:31:34;;;;;;;15.23;8.38;;;;;;;;;;5016100;28;20037;-80
2022/12/14 05:33:59;;;;;;;17.65;8.35;;;;;;;;;;5015414;28;20034;-80
2022/12/14 05:36:24;;;;;;;14.13;8.38;;;;;;;;;;5015435;28;20045;-80
2022/12/14 05:38:50;;;;;;;15.95;8.70;;;;;;;;;;5015842;28;20038;-80
2022/12/14 05:41:16;;;;;;;15.98;8.05;;;;;;;;;;5015810;28;20038;-80
2022/12/14 05:43:41;;;;;;;25.90;11.35;;;;;;;;;;5015743;28;20040;-80
2022/12/14 05:46:08;;;;;;;22.02;8.93;;;;;;;;;;5015513;28;20034;-80
2022/12/14 05:48:34;;;;;;;14.50;7.88;;;;;;;;;;5014932;28;20063;-80
2022/12/14 05:51:06;;;;;;;15.27;9.00;;;;;;;;;;5015326;28;20623;-80
2022/12/14 05:53:32;;;;;;;16.48;8.95;;;;;;;;;;5014443;28;20092;-80
2022/12/14 05:55:58;;;;;;;19.83;11.50;;;;;;;;;;5014030;28;20053;-80
2022/12/14 05:58:23;;;;;;;24.58;15.25;;;;;;;;;;5000253;28;20514;-80
2022/12/14 06:00:49;;;;;;;23.73;10.90;;;;;;;;;;5017581;28;20103;-81
2022/12/14 06:03:15;;;;;;;19.00;10.43;;;;;;;;;;5017319;28;20125;-81
2022/12/14 06:05:41;;;;;;;21.35;9.55;;;;;;;;;;5017116;28;20041;-81
2022/12/14 06:08:06;;;;;;;21.73;11.02;;;;;;;;;;5017038;28;20502;-80
2022/12/14 06:10:31;;;;;;;22.20;10.10;;;;;;;;;;5016721;28;20038;-81
2022/12/14 06:12:57;;;;;;;19.08;9.77;;;;;;;;;;5017193;28;20359;-81
2022/12/14 06:15:22;;;;;;;18.60;10.32;;;;;;;;;;5016826;28;20038;-81
2022/12/14 06:17:48;;;;;;;31.77;13.65;;;;;;;;;;5017162;28;20038;-81
2022/12/14 06:20:13;;;;;;;30.48;13.63;;;;;;;;;;5017613;28;20096;-81
2022/12/14 06:22:39;;;;;;;20.23;11.35;;;;;;;;;;5017935;28;20020;-81
2022/12/14 06:25:06;;;;;;;19.88;10.32;;;;;;;;;;5016496;28;20411;-81
2022/12/14 06:27:31;;;;;;;17.92;9.75;;;;;;;;;;5017224;28;20033;-81
2022/12/14 06:29:57;;;;;;;25.38;10.38;;;;;;;;;;5018015;28;20490;-81
2022/12/14 06:32:22;;;;;;;21.52;10.93;;;;;;;;;;5018228;28;20483;-81
2022/12/14 06:34:48;;;;;;;77.10;38.30;;;;;;;;;;5016358;28;20048;-81
2022/12/14 06:37:13;;;;;;;30.25;15.80;;;;;;;;;;5018093;28;20030;-81
2022/12/14 06:39:39;;;;;;;29.67;14.82;;;;;;;;;;5016592;28;20041;-81
2022/12/14 06:42:05;;;;;;;16.67;9.85;;;;;;;;;;5018189;28;20029;-81
2022/12/14 06:44:30;;;;;;;36.70;16.45;;;;;;;;;;5016467;28;20487;-81
2022/12/14 06:46:56;;;;;;;35.85;16.65;;;;;;;;;;5017398;28;20034;-81
2022/12/14 06:49:22;;;;;;;62.85;29.77;;;;;;;;;;5017364;28;20057;-81
2022/12/14 06:51:48;;;;;;;35.15;18.50;;;;;;;;;;5016240;28;20510;-81
2022/12/14 06:54:15;;;;;;;27.52;13.35;;;;;;;;;;5017318;28;20038;-82
2022/12/14 06:56:42;;;;;;;31.60;13.40;;;;;;;;;;5018039;28;20045;-81
2022/12/14 06:59:09;;;;;;;17.42;9.68;;;;;;;;;;5017985;28;20041;-81
2022/12/14 07:01:36;;;;;;;20.70;10.25;;;;;;;;;;5017665;28;20135;-81
2022/12/14 07:04:01;;;;;;;25.35;12.40;;;;;;;;;;5003785;28;20529;-82
2022/12/14 07:06:31;;;;;;;18.05;9.70;;;;;;;;;;5018928;28;20030;-81
2022/12/14 07:08:58;;;;;;;19.58;10.75;;;;;;;;;;5019201;28;20037;-81
2022/12/14 07:11:25;;;;;;;24.83;12.40;;;;;;;;;;5037659;28;20144;-81
2022/12/14 07:13:50;;;;;;;24.27;11.23;;;;;;;;;;5019054;28;20504;-81
2022/12/14 07:16:21;;;;;;;16.00;9.10;;;;;;;;;;5018414;28;20120;-81
2022/12/14 07:18:48;;;;;;;18.58;10.05;;;;;;;;;;5018350;28;20038;-81
2022/12/14 07:21:15;;;;;;;19.48;9.57;;;;;;;;;;5017849;28;20030;-82
2022/12/14 07:23:43;;;;;;;16.58;8.95;;;;;;;;;;5017830;28;20033;-82
2022/12/14 07:26:10;;;;;;;17.88;9.73;;;;;;;;;;5017625;28;20497;-82
2022/12/14 07:28:36;;;;;;;17.15;9.77;;;;;;;;;;5035437;28;20033;-81
2022/12/14 07:31:04;;;;;;;16.65;9.68;;;;;;;;;;5035619;28;20041;-82
2022/12/14 07:33:29;;;;;;;16.75;9.80;;;;;;;;;;5018057;28;20039;-81
2022/12/14 07:36:05;;;;;;;20.05;10.32;;;;;;;;;;5035272;28;20484;-81
2022/12/14 07:38:32;;;;;;;17.02;9.63;;;;;;;;;;5036408;28;20037;-81
2022/12/14 07:41:09;;;;;;;23.00;11.35;;;;;;;;;;5018406;28;20037;-82
2022/12/14 07:43:36;;;;;;;17.85;9.88;;;;;;;;;;5018192;28;20480;-82
2022/12/14 07:46:03;;;;;;;18.75;10.38;;;;;;;;;;5035684;28;20036;-82
2022/12/14 07:48:30;;;;;;;24.15;13.00;;;;;;;;;;5017787;28;20096;-82
2022/12/14 07:51:00;;;;;;;21.13;11.18;;;;;;;;;;5035851;28;20091;-81
2022/12/14 07:53:26;;;;;;;28.55;12.88;;;;;;;;;;5036139;28;20036;-82
2022/12/14 07:55:51;;;;;;;18.42;11.38;;;;;;;;;;5002771;28;20038;-83
2022/12/14 07:58:17;;;;;;;26.50;11.95;;;;;;;;;;5018969;28;20029;-82
2022/12/14 08:00:42;;;;;;;28.60;14.32;;;;;;;;;;5037171;28;20486;-82
2022/12/14 08:03:08;;;;;;;21.50;12.88;;;;;;;;;;5037689;28;20525;-82
2022/12/14 08:05:36;;;;;;;23.40;12.10;;;;;;;;;;5019479;28;20041;-81
2022/12/14 08:08:01;;;;;;;24.13;14.98;;;;;;;;;;5037141;28;20030;-81
2022/12/14 08:10:27;;;;;;;25.30;12.82;;;;;;;;;;5036197;28;20449;-81
2022/12/14 08:12:52;;;;;;;26.75;14.73;;;;;;;;;;5035192;28;20030;-81
2022/12/14 08:15:18;;;;;;;24.58;13.10;;;;;;;;;;5033827;28;20037;-80
2022/12/14 08:17:43;;;;;;;26.20;12.32;;;;;;;;;;5034614;28;20067;-81
2022/12/14 08:20:09;;;;;;;21.13;11.90;;;;;;;;;;5034229;28;20628;-81
2022/12/14 08:22:35;;;;;;;22.65;12.27;;;;;;;;;;5016676;28;20041;-81
2022/12/14 08:25:00;;;;;;;31.50;14.30;;;;;;;;;;5016407;28;20038;-83
2022/12/14 08:27:26;;;;;;;28.65;13.88;;;;;;;;;;5018464;28;20145;-86
2022/12/14 08:29:51;;;;;;;25.95;12.98;;;;;;;;;;5038146;28;20042;-83
2022/12/14 08:32:18;;;;;;;25.05;12.27;;;;;;;;;;5035261;28;20076;-83
2022/12/14 08:34:44;;;;;;;20.25;11.57;;;;;;;;;;5035955;28;20048;-82
2022/12/14 08:37:10;;;;;;;39.00;18.55;;;;;;;;;;5035457;28;20030;-82
2022/12/14 08:39:36;;;;;;;21.92;12.57;;;;;;;;;;5035869;28;20128;-81
2022/12/14 08:42:02;;;;;;;26.35;13.10;;;;;;;;;;5035155;28;20442;-81
2022/12/14 08:44:27;;;;;;;23.35;13.75;;;;;;;;;;5035510;28;20052;-81
2022/12/14 08:46:53;;;;;;;25.73;12.52;;;;;;;;;;5035384;28;20035;-81
2022/12/14 08:49:18;;;;;;;26.63;13.57;;;;;;;;;;5035892;28;20030;-81
2022/12/14 08:51:44;;;;;;;86.30;29.33;;;;;;;;;;5035569;28;20041;-81
2022/12/14 08:54:10;;;;;;;50.38;20.42;;;;;;;;;;5035505;28;20069;-81
2022/12/14 08:56:36;;;;;;;48.70;19.30;;;;;;;;;;5017979;28;20141;-81
2022/12/14 08:59:02;;;;;;;60.90;23.67;;;;;;;;;;5034992;28;20037;-82
2022/12/14 09:01:29;;;;;;;32.80;15.30;;;;;;;;;;5018739;28;20034;-82
2022/12/14 09:03:54;;;;;;;19.40;9.52;;;;;;;;;;5035656;28;20441;-81
2022/12/14 09:06:26;;;;;;;16.45;9.25;;;;;;;;;;5017830;28;20029;-82
2022/12/14 09:08:52;;;;;;;17.30;8.18;;;;;;;;;;5016856;28;20033;-81
2022/12/14 09:11:21;;;;;;;10.88;5.13;;;;;;;;;;5034854;28;20033;-80
2022/12/14 09:13:47;;;;;;;11.13;5.30;;;;;;;;;;5035658;28;20409;-80
2022/12/14 09:16:18;;;;;;;11.13;6.70;;;;;;;;;;5016263;28;20482;-75
2022/12/14 09:18:47;;;;;;;11.65;6.90;;;;;;;;;;5031096;28;20044;-76
2022/12/14 09:21:14;;;;;;;16.58;8.50;;;;;;;;;;5014829;28;20041;-85
2022/12/14 09:23:40;;;;;;;14.77;7.82;;;;;;;;;;5034277;28;20068;-82
2022/12/14 09:26:19;;;;;;;12.25;7.57;;;;;;;;;;5034938;28;20044;-83
2022/12/14 09:28:48;;;;;;;12.65;7.28;;;;;;;;;;5017526;28;20041;-84
2022/12/14 09:31:16;;;;;;;13.50;6.40;;;;;;;;;;5037391;28;20041;-83
2022/12/14 09:33:41;;;;;;;12.50;6.43;;;;;;;;;;5037220;28;20041;-83
2022/12/14 09:36:18;;;;;;;10.80;6.95;;;;;;;;;;5018970;28;20029;-84
2022/12/14 09:38:44;;;;;;;16.17;8.65;;;;;;;;;;5037964;28;20494;-83
2022/12/14 09:41:34;;;;;;;20.63;11.10;;;;;;;;;;5038143;28;20045;-84
2022/12/14 09:44:45;;;;;;;18.23;9.15;;;;;;;;;;5038061;28;20041;-83
2022/12/14 09:47:30;;;;;;;14.25;7.40;;;;;;;;;;5035149;28;20139;-83
2022/12/14 09:50:06;;;;;;;14.60;8.52;;;;;;;;;;5036846;28;20041;-84
2022/12/14 09:52:50;;;;;;;13.07;7.45;;;;;;;;;;5037683;28;20457;-84
2022/12/14 09:55:22;;;;;;;11.07;6.57;;;;;;;;;;5037317;28;20048;-84
2022/12/14 09:57:55;;;;;;;12.77;7.25;;;;;;;;;;5037149;28;20037;-84
2022/12/14 10:00:21;;;;;;;16.98;9.75;;;;;;;;;;5037850;28;20044;-84
2022/12/14 10:03:11;;;;;;;19.85;9.52;;;;;;;;;;5020398;28;20406;-84
2022/12/14 10:05:43;;;;;;;22.25;11.35;;;;;;;;;;5037920;28;20080;-84
2022/12/14 10:08:20;;;;;;;21.73;11.53;;;;;;;;;;5020404;28;20126;-85
2022/12/14 10:11:06;;;;;;;25.63;13.07;;;;;;;;;;5038337;28;20029;-84
2022/12/14 10:13:57;;;;;;;20.58;11.35;;;;;;;;;;5037403;28;20041;-84
2022/12/14 10:16:25;;;;;;;20.15;10.38;;;;;;;;;;5037812;28;20041;-84
2022/12/14 10:19:11;;;;;;;186.25;86.78;;;;;;;;;;5037141;28;20542;-85
2022/12/14 10:21:54;;;;;;;36.65;18.85;;;;;;;;;;4993116;28;20041;-84
2022/12/14 10:24:25;;;;;;;12.77;6.77;;;;;;;;;;5037287;28;20040;-84
2022/12/14 10:26:53;;;;;;;17.42;7.85;;;;;;;;;;5031401;28;20277;-84
2022/12/14 10:29:34;;;;;;;9.55;5.47;;;;;;;;;;5017041;28;20040;-85
2022/12/14 10:32:10;;;;;;;10.80;5.45;;;;;;;;;;5018058;28;20044;-85
2022/12/14 10:34:39;;;;;;;10.20;6.00;;;;;;;;;;5018109;28;20033;-84
2022/12/14 10:37:34;;;;;;;10.13;5.07;;;;;;;;;;5017933;28;20128;-85
2022/12/14 10:40:08;;;;;;;8.63;4.93;;;;;;;;;;5017812;28;20553;-85
2022/12/14 10:42:42;;;;;;;12.13;6.00;;;;;;;;;;5017465;28;20084;-85
2022/12/14 10:45:19;;;;;;;11.73;6.10;;;;;;;;;;4999454;28;20041;-85
2022/12/14 10:47:55;;;;;;;9.23;5.53;;;;;;;;;;5017373;28;20030;-84
2022/12/14 10:50:44;;;;;;;12.77;5.15;;;;;;;;;;5016070;28;20037;-85
2022/12/14 10:53:16;;;;;;;8.43;5.53;;;;;;;;;;5016169;28;20038;-84
2022/12/14 10:55:43;;;;;;;8.90;5.47;;;;;;;;;;5017208;28;20041;-84
2022/12/14 10:58:12;;;;;;;10.95;6.45;;;;;;;;;;5015954;28;20037;-85
2022/12/14 11:00:38;;;;;;;15.52;8.15;;;;;;;;;;5014982;28;20034;-84
2022/12/14 11:03:10;;;;;;;15.93;9.32;;;;;;;;;;5015161;28;20392;-84
2022/12/14 11:05:38;;;;;;;24.27;9.40;;;;;;;;;;5016291;28;20613;-85
2022/12/14 11:08:07;;;;;;;15.68;7.65;;;;;;;;;;5015128;28;20088;-84
2022/12/14 11:10:35;;;;;;;12.77;7.07;;;;;;;;;;5015884;28;20053;-85
2022/12/14 11:13:02;;;;;;;12.68;6.65;;;;;;;;;;5015036;28;20117;-85
2022/12/14 11:15:51;;;;;;;23.40;10.60;;;;;;;;;;5014027;28;20037;-85
2022/12/14 11:18:18;;;;;;;20.77;10.80;;;;;;;;;;5015890;28;20036;-85
2022/12/14 11:20:57;;;;;;;17.13;9.63;;;;;;;;;;4998421;28;20065;-85
2022/12/14 11:23:36;;;;;;;17.23;9.63;;;;;;;;;;5015949;28;20062;-84
2022/12/14 11:26:05;;;;;;;15.07;8.60;;;;;;;;;;5015867;28;20068;-86
2022/12/14 11:28:48;;;;;;;12.90;7.75;;;;;;;;;;4998181;28;20041;-86
2022/12/14 11:31:21;;;;;;;16.30;7.45;;;;;;;;;;5015514;28;20402;-85
2022/12/14 11:33:50;;;;;;;15.23;9.00;;;;;;;;;;5016956;28;20045;-86
2022/12/14 11:36:35;;;;;;;17.88;11.20;;;;;;;;;;5014732;28;20044;-86
2022/12/14 11:39:05;;;;;;;20.17;11.18;;;;;;;;;;5015967;28;20095;-84
2022/12/14 11:41:37;;;;;;;20.02;12.27;;;;;;;;;;5016572;28;20029;-86
2022/12/14 11:44:21;;;;;;;18.23;10.70;;;;;;;;;;5016352;28;20040;-85
2022/12/14 11:46:49;;;;;;;19.80;11.60;;;;;;;;;;5015283;28;20034;-85
2022/12/14 11:49:34;;;;;;;20.63;11.68;;;;;;;;;;5015962;28;20034;-84
2022/12/14 11:52:19;;;;;;;18.58;10.95;;;;;;;;;;5016343;28;20061;-84
2022/12/14 11:54:47;;;;;;;22.33;10.70;;;;;;;;;;5018570;28;20461;-85
2022/12/14 11:57:12;;;;;;;18.65;10.50;;;;;;;;;;5016677;28;20061;-85
2022/12/14 11:59:40;;;;;;;18.33;10.45;;;;;;;;;;5017900;28;20048;-83
2022/12/14 12:02:39;;;;;;;19.13;11.18;;;;;;;;;;5016463;28;20057;-85
2022/12/14 12:05:11;;;;;;;19.35;10.85;;;;;;;;;;5016363;28;20510;-85
2022/12/14 12:07:48;;;;;;;24.75;13.38;;;;;;;;;;5016367;28;20491;-85
2022/12/14 12:10:32;;;;;;;21.10;12.73;;;;;;;;;;5016650;28;20109;-85
2022/12/14 12:13:04;;;;;;;25.90;14.10;;;;;;;;;;5015849;28;20034;-84
2022/12/14 12:15:34;;;;;;;22.35;12.55;;;;;;;;;;5014220;28;20128;-85
2022/12/14 12:18:04;;;;;;;32.80;18.20;;;;;;;;;;5020103;28;20068;-85
2022/12/14 12:20:59;;;;;;;30.83;16.27;;;;;;;;;;5016445;28;20095;-85
2022/12/14 12:23:34;;;;;;;26.38;13.50;;;;;;;;;;5014527;28;20454;-85
2022/12/14 12:26:09;;;;;;;25.08;13.20;;;;;;;;;;5006567;28;20047;-85
2022/12/14 12:28:42;;;;;;;26.80;14.63;;;;;;;;;;5013414;28;20095;-85
2022/12/14 12:31:15;;;;;;;25.25;13.75;;;;;;;;;;4997876;28;20048;-85
2022/12/14 12:33:49;;;;;;;32.90;15.40;;;;;;;;;;5015951;28;20050;-85
2022/12/14 12:36:17;;;;;;;28.88;14.13;;;;;;;;;;4997660;28;20100;-85
2022/12/14 12:38:59;;;;;;;45.17;17.88;;;;;;;;;;4981716;28;20037;-85
2022/12/14 12:41:50;;;;;;;33.17;14.95;;;;;;;;;;4997851;28;20119;-84
2022/12/14 12:44:24;;;;;;;43.60;17.85;;;;;;;;;;4998148;28;20030;-85
2022/12/14 12:47:20;;;;;;;88.35;29.88;;;;;;;;;;4998026;28;20485;-84
2022/12/14 12:49:47;;;;;;;48.90;21.45;;;;;;;;;;5015616;28;20042;-84
2022/12/14 12:52:24;;;;;;;45.80;19.02;;;;;;;;;;5015620;28;20041;-84
2022/12/14 12:54:57;;;;;;;24.27;12.68;;;;;;;;;;4997706;28;20042;-84
2022/12/14 12:57:24;;;;;;;;;;;;;;;;;;5015805;28;20495;-82
2022/12/14 12:59:54;;;;;;;24.17;12.70;;;;;;;;;;5015569;28;19969;-84
2022/12/14 13:02:30;;;;;;;24.42;12.82;;;;;;;;;;4998360;28;20029;-84
2022/12/14 13:04:56;;;;;;;22.38;12.45;;;;;;;;;;4999601;28;20120;-84
2022/12/14 13:07:35;;;;;;;26.83;14.45;;;;;;;;;;5019730;28;20053;-85
2022/12/14 13:10:17;;;;;;;25.63;13.00;;;;;;;;;;5002112;28;20033;-84
2022/12/14 13:12:50;;;;;;;21.50;12.35;;;;;;;;;;5001814;28;20038;-84
2022/12/14 13:15:19;;;;;;;24.52;12.75;;;;;;;;;;5001236;28;20080;-84
2022/12/14 13:17:52;;;;;;;23.38;12.48;;;;;;;;;;5018746;28;20081;-84
2022/12/14 13:20:25;;;;;;;;;;;;;;;;;;5019729;28;20568;-83
2022/12/14 13:22:52;;;;;;;23.73;13.87;;;;;;;;;;5019032;28;19917;-84
2022/12/14 13:25:24;;;;;;;31.05;17.42;;;;;;;;;;5001494;28;20551;-84
2022/12/14 13:28:18;;;;;;;29.95;17.33;;;;;;;;;;5018537;28;20033;-84
2022/12/14 13:31:02;;;;;;;29.50;15.75;;;;;;;;;;5019023;28;20072;-84
2022/12/14 13:33:46;;;;;;;27.90;16.50;;;;;;;;;;5018415;28;20127;-84
2022/12/14 13:36:33;;;;;;;26.65;14.95;;;;;;;;;;5018092;28;20062;-84
2022/12/14 13:39:38;;;;;;;23.55;13.90;;;;;;;;;;5017117;28;20033;-84
2022/12/14 13:42:16;;;;;;;17.15;10.43;;;;;;;;;;5018442;28;20060;-84
2022/12/14 13:44:56;;;;;;;12.23;7.13;;;;;;;;;;5018343;28;20053;-84
2022/12/14 13:47:34;;;;;;;9.00;4.80;;;;;;;;;;5017251;28;20030;-84
2022/12/14 13:50:02;;;;;;;13.30;5.07;;;;;;;;;;5017997;28;20237;-86
2022/12/14 13:52:41;;;;;;;9.10;3.92;;;;;;;;;;5017983;28;20045;-86
2022/12/14 13:55:26;;;;;;;11.07;4.60;;;;;;;;;;5015707;28;20461;-84
2022/12/14 13:58:04;;;;;;;6.18;2.50;;;;;;;;;;5016974;28;20033;-86
2022/12/14 14:00:45;;;;;;;5.75;3.10;;;;;;;;;;5016082;28;20042;-85
2022/12/14 14:03:50;;;;;;;13.63;6.60;;;;;;;;;;5016834;28;20038;-84
2022/12/14 14:06:34;;;;;;;13.25;5.47;;;;;;;;;;5016164;28;20050;-84
2022/12/14 14:09:19;;;;;;;;;;;;;;;;;;5017567;28;20061;-85
2022/12/14 14:11:58;;;;;;;14.73;5.55;;;;;;;;;;5000106;28;19919;-85
2022/12/14 14:14:36;;;;;;;5.35;2.90;;;;;;;;;;5016634;28;20442;-85
2022/12/14 14:17:15;;;;;;;12.35;4.97;;;;;;;;;;5016369;28;20034;-84
2022/12/14 14:19:41;;;;;;;8.57;3.85;;;;;;;;;;5016271;28;20045;-85
2022/12/14 14:22:09;;;;;;;7.20;2.45;;;;;;;;;;5017068;28;20041;-85
2022/12/14 14:24:54;;;;;;;3.58;1.80;;;;;;;;;;4998914;28;20044;-85
2022/12/14 14:27:23;;;;;;;3.13;1.63;;;;;;;;;;5017121;28;20029;-85
2022/12/14 14:29:50;;;;;;;3.75;1.90;;;;;;;;;;5017591;28;20030;-85
2022/12/14 14:32:37;;;;;;;5.63;2.10;;;;;;;;;;5016356;28;20467;-85
2022/12/14 14:35:06;;;;;;;3.67;2.00;;;;;;;;;;4998504;28;20505;-84
2022/12/14 14:37:34;;;;;;;7.30;3.50;;;;;;;;;;5016135;28;20030;-87
2022/12/14 14:40:22;;;;;;;4.47;2.55;;;;;;;;;;5017059;28;20084;-84
2022/12/14 14:42:54;;;;;;;2.97;1.60;;;;;;;;;;5017070;28;20030;-84
2022/12/14 14:45:44;;;;;;;3.97;2.00;;;;;;;;;;5015760;28;20037;-86
2022/12/14 14:48:32;;;;;;;6.72;3.30;;;;;;;;;;5017573;28;20487;-89
2022/12/14 14:51:03;;;;;;;15.60;8.00;;;;;;;;;;5017280;28;20052;-85
2022/12/14 14:53:37;;;;;;;11.32;5.30;;;;;;;;;;5017561;28;20041;-85
2022/12/14 14:56:02;;;;;;;12.70;5.85;;;;;;;;;;5017006;28;20034;-86
2022/12/14 14:58:36;;;;;;;4.53;2.50;;;;;;;;;;5017137;28;20421;-86
2022/12/14 15:01:11;;;;;;;4.97;2.33;;;;;;;;;;5015321;28;20120;-86
2022/12/14 15:03:55;;;;;;;5.10;2.70;;;;;;;;;;5014944;28;20498;-86
2022/12/14 15:06:32;;;;;;;6.35;3.20;;;;;;;;;;5014802;28;20025;-86
2022/12/14 15:09:04;;;;;;;6.03;3.00;;;;;;;;;;5016687;28;20073;-85
2022/12/14 15:11:47;;;;;;;5.72;2.92;;;;;;;;;;5015132;28;20041;-85
2022/12/14 15:14:36;;;;;;;9.05;3.78;;;;;;;;;;5015141;28;20040;-85